Vanguard, Canada
Current Conditions -  °F | °C
As of 8:00 PM on Friday 24 Oct 2014 (Local Time) from CYYN Reporting Station
Clear Clear  
Wind Chill: 29°   Ceiling: Unl
Heat Index: 36°   Visibility: 9mi
Dew Point: 28°   Wind: 8mph
Humidity: 75%   Direction: 230°SW
Pressure: 29.99"   Gusts: NA
Location:  49.9°N, 107.3°W
Report Text: CYYN 250200Z AUTO 23007KT 9SM CLR 02/M02 A2999 RMK SLP177
Loading
Personal Weather Stations






























Interactive Weather Map New forecast layout! Learn more

10-Day Weather Forecast

Advertisements
Track Severe Weather on mobile